createdAt,value
2019-04-04T00:00:27.613Z,8.70
2019-04-04T00:02:54.831Z,8.80
2019-04-04T00:05:22.139Z,8.86
2019-04-04T00:07:49.379Z,8.81
2019-04-04T00:10:16.645Z,8.88
2019-04-04T00:12:43.957Z,8.94
2019-04-04T00:15:11.247Z,8.98
2019-04-04T00:17:40.167Z,9.01
2019-04-04T00:20:07.603Z,9.03
2019-04-04T00:22:35.496Z,9.07
2019-04-04T00:25:03.338Z,9.07
2019-04-04T00:27:30.539Z,9.01
2019-04-04T00:29:57.802Z,8.96
2019-04-04T00:32:25.043Z,8.87
2019-04-04T00:34:52.274Z,8.96
2019-04-04T00:37:19.533Z,8.96
2019-04-04T00:39:46.715Z,8.96
2019-04-04T00:42:15.033Z,9.01
2019-04-04T00:44:43.076Z,9.03
2019-04-04T00:47:10.346Z,8.84
2019-04-04T00:49:37.673Z,8.50
2019-04-04T00:52:04.920Z,8.43
2019-04-04T00:54:32.154Z,8.66
2019-04-04T00:56:59.356Z,8.77
2019-04-04T00:59:26.617Z,8.53
2019-04-04T01:01:55.075Z,8.18
2019-04-04T01:04:22.931Z,8.02
2019-04-04T01:06:50.206Z,7.94
2019-04-04T01:09:17.414Z,8.25
2019-04-04T01:11:44.654Z,8.40
2019-04-04T01:14:11.909Z,8.40
2019-04-04T01:16:39.137Z,8.50
2019-04-04T01:19:09.678Z,8.61
2019-04-04T01:21:35.532Z,8.66
2019-04-04T01:24:02.880Z,8.65
2019-04-04T01:26:30.131Z,8.54
2019-04-04T01:28:57.364Z,8.54
2019-04-04T01:31:24.592Z,8.61
2019-04-04T01:33:52.059Z,8.72
2019-04-04T01:36:19.316Z,8.72
2019-04-04T01:38:46.548Z,8.68
2019-04-04T01:41:13.818Z,8.70
2019-04-04T01:43:41.072Z,8.65
2019-04-04T01:46:08.316Z,8.65
2019-04-04T01:48:35.598Z,8.67
2019-04-04T01:51:02.826Z,8.62
2019-04-04T01:53:30.793Z,8.69
2019-04-04T01:55:58.190Z,8.74
2019-04-04T01:58:25.439Z,8.78
2019-04-04T02:00:52.663Z,8.80
2019-04-04T02:03:22.467Z,8.82
2019-04-04T02:05:49.112Z,8.87
2019-04-04T02:08:16.341Z,8.83
2019-04-04T02:10:46.659Z,8.66
2019-04-04T02:13:13.947Z,8.74
2019-04-04T02:15:42.846Z,8.78
2019-04-04T02:18:10.342Z,8.78
2019-04-04T02:20:37.637Z,8.77
2019-04-04T02:23:04.893Z,8.78
2019-04-04T02:25:34.159Z,8.84
2019-04-04T02:28:01.306Z,8.88
2019-04-04T02:30:28.819Z,8.88
2019-04-04T02:32:59.316Z,8.90
2019-04-04T02:35:25.204Z,8.92
2019-04-04T02:37:54.883Z,8.95
2019-04-04T02:40:21.589Z,8.95
2019-04-04T02:42:48.920Z,8.96
2019-04-04T02:45:16.245Z,8.99
2019-04-04T02:47:43.495Z,9.00
2019-04-04T02:50:11.281Z,9.01
2019-04-04T02:52:38.525Z,9.00
2019-04-04T02:55:05.953Z,8.89
2019-04-04T02:57:33.214Z,8.89
2019-04-04T03:00:00.488Z,8.94
2019-04-04T03:02:27.708Z,8.98
2019-04-04T03:04:54.999Z,8.98
2019-04-04T03:07:22.264Z,9.01
2019-04-04T03:09:49.611Z,9.03
2019-04-04T03:12:17.085Z,9.01
2019-04-04T03:14:44.322Z,8.99
2019-04-04T03:17:11.569Z,8.98
2019-04-04T03:19:40.752Z,8.99
2019-04-04T03:22:07.982Z,8.96
2019-04-04T03:24:38.896Z,8.94
2019-04-04T03:27:04.471Z,8.93
2019-04-04T03:29:31.729Z,8.88
2019-04-04T03:31:58.995Z,8.90
2019-04-04T03:34:26.319Z,8.88
2019-04-04T03:36:53.601Z,8.86
2019-04-04T03:39:20.856Z,8.86
2019-04-04T03:41:48.091Z,8.82
2019-04-04T03:44:19.588Z,8.78
2019-04-04T03:46:44.577Z,8.76
2019-04-04T03:49:11.889Z,8.77
2019-04-04T03:51:39.153Z,8.76
2019-04-04T03:54:11.305Z,8.70
2019-04-04T03:56:39.429Z,8.70
2019-04-04T03:59:06.962Z,8.68
2019-04-04T04:01:34.261Z,8.64
2019-04-04T04:04:01.507Z,8.64
2019-04-04T04:06:28.757Z,8.64
2019-04-04T04:08:56.027Z,8.62
2019-04-04T04:11:23.268Z,8.61
2019-04-04T04:13:50.543Z,8.59
2019-04-04T04:16:17.785Z,8.55
2019-04-04T04:18:45.026Z,8.55
2019-04-04T04:21:12.297Z,8.54
2019-04-04T04:23:39.520Z,8.52
2019-04-04T04:26:09.355Z,8.51
2019-04-04T04:28:35.992Z,8.47
2019-04-04T04:31:03.237Z,8.41
2019-04-04T04:33:30.508Z,8.37
2019-04-04T04:35:57.778Z,8.34
2019-04-04T04:38:26.766Z,8.30
2019-04-04T04:40:54.146Z,8.22
2019-04-04T04:43:21.424Z,8.17
2019-04-04T04:45:48.655Z,8.15
2019-04-04T04:48:15.941Z,8.11
2019-04-04T04:50:43.267Z,8.08
2019-04-04T04:53:10.524Z,8.08
2019-04-04T04:55:37.754Z,8.07
2019-04-04T04:58:05.030Z,8.06
2019-04-04T05:00:32.309Z,8.02
2019-04-04T05:02:59.577Z,7.99
2019-04-04T05:05:26.803Z,7.96
2019-04-04T05:07:55.032Z,7.96
2019-04-04T05:10:22.499Z,7.94
2019-04-04T05:12:52.846Z,7.91
2019-04-04T05:15:21.227Z,7.85
2019-04-04T05:17:48.026Z,7.86
2019-04-04T05:20:15.255Z,7.85
2019-04-04T05:22:42.480Z,7.83
2019-04-04T05:25:09.942Z,7.80
2019-04-04T05:27:37.914Z,7.76
2019-04-04T05:30:08.147Z,7.74
2019-04-04T05:32:34.715Z,7.72
2019-04-04T05:35:02.157Z,7.73
2019-04-04T05:37:29.421Z,7.74
2019-04-04T05:39:59.767Z,7.74
2019-04-04T05:42:27.030Z,7.72
2019-04-04T05:44:54.276Z,7.70
2019-04-04T05:47:23.283Z,7.74
2019-04-04T05:49:50.764Z,7.74
2019-04-04T05:52:18.078Z,7.75
2019-04-04T05:54:45.381Z,7.72
2019-04-04T05:57:12.570Z,7.76
2019-04-04T05:59:42.186Z,7.75
2019-04-04T06:02:11.126Z,7.83
2019-04-04T06:04:38.099Z,7.85
2019-04-04T06:07:05.339Z,7.89
2019-04-04T06:09:32.601Z,7.92
2019-04-04T06:11:59.877Z,7.95
2019-04-04T06:14:29.688Z,8.00
2019-04-04T06:16:56.320Z,8.05
2019-04-04T06:19:26.082Z,8.04
2019-04-04T06:21:53.327Z,8.06
2019-04-04T06:24:20.566Z,8.15
2019-04-04T06:26:47.914Z,8.24
2019-04-04T06:29:17.373Z,8.47
2019-04-04T06:31:44.343Z,8.61
2019-04-04T06:34:11.613Z,8.80
2019-04-04T06:36:38.838Z,8.90
2019-04-04T06:39:07.385Z,8.93
2019-04-04T06:41:34.639Z,8.98
2019-04-04T06:44:01.843Z,9.06
2019-04-04T06:46:29.085Z,9.06
2019-04-04T06:48:56.375Z,9.09
2019-04-04T06:51:23.643Z,9.12
2019-04-04T06:53:53.320Z,9.12
2019-04-04T06:56:20.062Z,9.15
2019-04-04T06:58:47.351Z,9.17
2019-04-04T07:01:14.594Z,9.17
2019-04-04T07:03:41.858Z,9.18
2019-04-04T07:06:10.200Z,9.16
2019-04-04T07:08:38.193Z,9.23
2019-04-04T07:11:15.506Z,9.23
2019-04-04T07:13:42.090Z,9.23
2019-04-04T07:16:07.684Z,9.24
2019-04-04T07:18:33.372Z,9.22
2019-04-04T07:21:03.469Z,9.22
2019-04-04T07:23:29.794Z,9.28
2019-04-04T07:25:57.048Z,9.33
2019-04-04T07:28:24.298Z,9.33
2019-04-04T07:30:54.465Z,9.35
2019-04-04T07:33:21.474Z,9.35
2019-04-04T07:35:49.496Z,9.35
2019-04-04T07:38:16.872Z,9.38
2019-04-04T07:40:44.129Z,9.36
2019-04-04T07:43:11.395Z,9.36
2019-04-04T07:45:38.637Z,9.33
2019-04-04T07:48:05.901Z,9.35
2019-04-04T07:50:33.201Z,9.38
2019-04-04T07:53:04.051Z,9.42
2019-04-04T07:55:29.568Z,9.45
2019-04-04T07:57:56.873Z,9.48
2019-04-04T08:00:24.110Z,9.49
2019-04-04T08:02:51.356Z,9.55
2019-04-04T08:05:18.738Z,9.57
2019-04-04T08:07:46.035Z,9.45
2019-04-04T08:10:20.496Z,9.48
2019-04-04T08:12:42.969Z,9.48
2019-04-04T08:15:10.613Z,9.46
2019-04-04T08:17:37.851Z,9.46
2019-04-04T08:20:05.905Z,9.46
2019-04-04T08:22:33.174Z,9.53
2019-04-04T08:25:00.995Z,9.53
2019-04-04T08:27:28.396Z,9.54
2019-04-04T08:29:55.660Z,9.56
2019-04-04T08:32:22.957Z,9.59
2019-04-04T08:34:50.218Z,9.63
2019-04-04T08:37:17.496Z,9.65
2019-04-04T08:39:44.782Z,9.65
2019-04-04T08:42:12.044Z,9.67
2019-04-04T08:44:39.265Z,9.74
2019-04-04T08:47:06.508Z,9.79
2019-04-04T08:49:33.760Z,9.79
2019-04-04T08:52:01.071Z,9.83
2019-04-04T08:54:28.371Z,9.88
2019-04-04T08:56:55.681Z,9.91
2019-04-04T08:59:22.908Z,9.91
2019-04-04T09:01:50.153Z,9.93
2019-04-04T09:04:17.428Z,9.96
2019-04-04T09:06:44.694Z,9.96
2019-04-04T09:09:11.939Z,9.97
2019-04-04T09:11:39.231Z,10.00
2019-04-04T09:14:06.476Z,10.00
2019-04-04T09:16:33.719Z,9.97
2019-04-04T09:19:00.979Z,9.92
2019-04-04T09:21:28.223Z,9.92
2019-04-04T09:23:55.466Z,9.93
2019-04-04T09:26:22.694Z,9.96
2019-04-04T09:28:49.989Z,9.76
2019-04-04T09:31:17.298Z,9.76
2019-04-04T09:33:44.542Z,9.85
2019-04-04T09:36:11.849Z,9.85
2019-04-04T09:38:39.174Z,9.92
2019-04-04T09:41:06.515Z,9.93
2019-04-04T09:43:33.833Z,9.93
2019-04-04T09:46:01.131Z,10.00
2019-04-04T09:48:28.347Z,10.01
2019-04-04T09:50:55.660Z,10.05
2019-04-04T09:53:22.956Z,10.04
2019-04-04T09:55:50.202Z,10.09
2019-04-04T09:58:17.429Z,10.12
2019-04-04T10:00:45.968Z,10.07
2019-04-04T10:03:13.212Z,10.08
2019-04-04T10:05:40.509Z,10.18
2019-04-04T10:08:07.715Z,10.25
2019-04-04T10:10:34.968Z,10.24
2019-04-04T10:13:02.215Z,10.32
2019-04-04T10:15:29.465Z,10.21
2019-04-04T10:17:56.726Z,10.21
2019-04-04T10:20:24.116Z,10.36
2019-04-04T10:22:51.447Z,10.36
2019-04-04T10:25:18.702Z,10.29
2019-04-04T10:27:45.986Z,10.29
2019-04-04T10:30:13.609Z,10.35
2019-04-04T10:32:40.851Z,10.35
2019-04-04T10:35:08.323Z,10.39
2019-04-04T10:37:35.873Z,10.35
2019-04-04T10:40:04.258Z,10.49
2019-04-04T10:42:31.527Z,10.48
2019-04-04T10:44:58.819Z,10.59
2019-04-04T10:47:26.050Z,10.65
2019-04-04T10:49:53.320Z,10.73
2019-04-04T10:52:20.632Z,10.76
2019-04-04T10:54:47.898Z,10.79
2019-04-04T10:57:15.140Z,10.83
2019-04-04T10:59:42.506Z,10.86
2019-04-04T11:02:09.742Z,10.87
2019-04-04T11:04:37.108Z,10.87
2019-04-04T11:07:04.589Z,10.98
2019-04-04T11:09:41.303Z,10.98
2019-04-04T11:12:01.005Z,10.98
2019-04-04T11:14:28.302Z,11.04
2019-04-04T11:16:55.569Z,11.04
2019-04-04T11:19:31.077Z,11.07
2019-04-04T11:21:52.029Z,11.06
2019-04-04T11:24:19.388Z,11.17
2019-04-04T11:26:46.630Z,11.21
2019-04-04T11:29:13.843Z,11.22
2019-04-04T11:31:41.120Z,11.22
2019-04-04T11:34:08.483Z,11.22
2019-04-04T11:36:35.746Z,11.17
2019-04-04T11:39:05.531Z,11.29
2019-04-04T11:41:32.756Z,11.28
2019-04-04T11:44:00.050Z,11.24
2019-04-04T11:46:27.280Z,11.29
2019-04-04T11:48:54.523Z,11.20
2019-04-04T11:51:21.767Z,11.28
2019-04-04T11:53:49.020Z,11.30
2019-04-04T11:56:16.297Z,11.31
2019-04-04T11:58:43.636Z,11.14
2019-04-04T12:01:11.587Z,11.14
2019-04-04T12:03:38.883Z,11.20
2019-04-04T12:06:06.103Z,11.21
2019-04-04T12:08:33.352Z,11.24
2019-04-04T12:11:00.671Z,11.28
2019-04-04T12:16:13.270Z,11.09
2019-04-04T12:18:40.483Z,11.09
2019-04-04T12:21:07.698Z,11.16
2019-04-04T12:23:34.983Z,11.17
2019-04-04T12:26:02.234Z,11.16
2019-04-04T12:28:29.463Z,10.93
2019-04-04T12:30:56.755Z,10.93
2019-04-04T12:33:24.104Z,11.06
2019-04-04T12:35:52.596Z,11.15
2019-04-04T12:38:19.968Z,11.21
2019-04-04T12:40:47.212Z,11.24
2019-04-04T12:43:14.479Z,11.28
2019-04-04T12:45:41.753Z,11.30
2019-04-04T12:48:10.092Z,11.28
2019-04-04T12:50:37.423Z,11.28
2019-04-04T12:53:04.840Z,11.32
2019-04-04T12:55:32.297Z,11.35
2019-04-04T12:57:59.549Z,11.39
2019-04-04T13:00:26.822Z,11.26
2019-04-04T13:02:54.070Z,11.31
2019-04-04T13:05:21.385Z,11.25
2019-04-04T13:07:48.632Z,11.30
2019-04-04T13:10:16.256Z,11.30
2019-04-04T13:12:43.518Z,11.25
2019-04-04T13:15:11.396Z,11.22
2019-04-04T13:17:38.670Z,11.23
2019-04-04T13:20:06.941Z,11.17
2019-04-04T13:22:34.179Z,11.16
2019-04-04T13:25:01.451Z,11.10
2019-04-04T13:27:28.727Z,11.12
2019-04-04T13:29:55.998Z,11.15
2019-04-04T13:32:23.228Z,11.16
2019-04-04T13:34:59.119Z,11.13
2019-04-04T13:37:19.654Z,11.10
2019-04-04T13:39:46.896Z,11.10
2019-04-04T13:42:14.151Z,11.16
2019-04-04T13:44:41.464Z,11.16
2019-04-04T13:47:08.746Z,11.14
2019-04-04T13:49:35.963Z,11.14
2019-04-04T13:52:03.879Z,11.10
2019-04-04T13:54:31.155Z,11.07
2019-04-04T13:56:58.402Z,11.02
2019-04-04T13:59:25.708Z,11.04
2019-04-04T14:01:52.960Z,11.05
2019-04-04T14:04:20.611Z,11.09
2019-04-04T14:06:49.221Z,11.07
2019-04-04T14:09:16.452Z,10.88
2019-04-04T14:11:43.712Z,10.99
2019-04-04T14:14:11.067Z,11.02
2019-04-04T14:16:38.732Z,11.02
2019-04-04T14:19:05.949Z,11.03
2019-04-04T14:21:33.198Z,10.82
2019-04-04T14:24:12.400Z,10.56
2019-04-04T14:26:31.390Z,10.58
2019-04-04T14:28:58.787Z,10.64
2019-04-04T14:31:26.052Z,10.59
2019-04-04T14:33:53.291Z,10.62
2019-04-04T14:36:20.531Z,10.67
2019-04-04T14:38:47.808Z,10.70
2019-04-04T14:41:15.042Z,10.78
2019-04-04T14:43:42.319Z,10.67
2019-04-04T14:46:09.603Z,10.69
2019-04-04T14:48:36.855Z,10.64
2019-04-04T14:51:04.249Z,10.62
2019-04-04T14:53:31.498Z,10.64
2019-04-04T14:55:58.813Z,10.52
2019-04-04T14:58:26.035Z,10.52
2019-04-04T15:00:53.309Z,10.64
2019-04-04T15:03:20.562Z,10.65
2019-04-04T15:05:47.847Z,10.65
2019-04-04T15:08:15.105Z,10.63
2019-04-04T15:10:42.459Z,10.59
2019-04-04T15:13:09.788Z,10.59
2019-04-04T15:15:38.855Z,10.49
2019-04-04T15:18:06.111Z,10.42
2019-04-04T15:20:33.438Z,10.47
2019-04-04T15:23:00.713Z,10.47
2019-04-04T15:25:28.012Z,10.55
2019-04-04T15:27:55.291Z,10.52
2019-04-04T15:30:22.635Z,10.52
2019-04-04T15:32:50.015Z,10.56
2019-04-04T15:35:17.361Z,10.56
2019-04-04T15:37:44.586Z,10.56
2019-04-04T15:40:12.140Z,10.63
2019-04-04T15:42:39.399Z,10.69
2019-04-04T15:45:07.177Z,10.68
2019-04-04T15:47:34.419Z,10.68
2019-04-04T15:50:06.452Z,10.55
2019-04-04T15:52:33.754Z,10.55
2019-04-04T15:55:01.028Z,10.47
2019-04-04T15:57:28.309Z,10.50
2019-04-04T15:59:55.559Z,10.52
2019-04-04T16:02:22.790Z,10.55
2019-04-04T16:04:50.088Z,10.53
2019-04-04T16:07:17.417Z,10.53
2019-04-04T16:09:44.666Z,10.55
2019-04-04T16:12:11.925Z,10.49
2019-04-04T16:14:39.169Z,10.52
2019-04-04T16:17:06.426Z,10.56
2019-04-04T16:19:33.686Z,10.55
2019-04-04T16:22:00.981Z,10.58
2019-04-04T16:24:28.917Z,10.58
2019-04-04T16:26:56.401Z,10.67
2019-04-04T16:29:23.709Z,10.70
2019-04-04T16:31:51.077Z,10.72
2019-04-04T16:34:18.383Z,10.71
2019-04-04T16:36:45.726Z,10.73
2019-04-04T16:39:13.006Z,10.70
2019-04-04T16:41:40.245Z,10.70
2019-04-04T16:44:07.509Z,10.65
2019-04-04T16:46:34.769Z,10.55
2019-04-04T16:49:02.068Z,10.55
2019-04-04T16:51:29.381Z,10.56
2019-04-04T16:53:56.753Z,10.52
2019-04-04T16:56:24.226Z,10.55
2019-04-04T16:58:51.464Z,10.55
2019-04-04T17:01:18.736Z,10.57
2019-04-04T17:03:46.025Z,10.58
2019-04-04T17:06:13.259Z,10.58
2019-04-04T17:08:40.511Z,10.58
2019-04-04T17:11:07.765Z,10.53
2019-04-04T17:13:34.999Z,10.53
2019-04-04T17:16:02.254Z,10.59
2019-04-04T17:18:29.556Z,10.59
2019-04-04T17:20:56.776Z,10.58
2019-04-04T17:23:24.016Z,10.58
2019-04-04T17:25:51.267Z,10.60
2019-04-04T17:28:18.505Z,10.55
2019-04-04T17:30:46.144Z,10.52
2019-04-04T17:33:13.744Z,10.46
2019-04-04T17:35:41.048Z,10.45
2019-04-04T17:38:08.287Z,10.45
2019-04-04T17:40:35.599Z,10.42
2019-04-04T17:43:03.495Z,10.38
2019-04-04T17:45:31.200Z,10.38
2019-04-04T17:47:58.548Z,10.42
2019-04-04T17:50:26.784Z,10.39
2019-04-04T17:52:54.140Z,10.38
2019-04-04T17:55:21.803Z,10.46
2019-04-04T17:57:49.104Z,10.44
2019-04-04T18:00:18.848Z,10.44
2019-04-04T18:02:46.161Z,10.39
2019-04-04T18:05:13.711Z,10.39
2019-04-04T18:07:40.988Z,10.43
2019-04-04T18:10:08.571Z,10.42
2019-04-04T18:12:40.474Z,10.34
2019-04-04T18:15:05.215Z,10.36
2019-04-04T18:17:33.090Z,10.37
2019-04-04T18:20:00.374Z,10.36
2019-04-04T18:22:27.593Z,10.34
2019-04-04T18:24:54.849Z,10.26
2019-04-04T18:27:22.111Z,10.08
2019-04-04T18:29:49.329Z,10.08
2019-04-04T18:32:16.590Z,9.98
2019-04-04T18:34:44.027Z,10.00
2019-04-04T18:37:11.763Z,9.99
2019-04-04T18:39:39.149Z,10.00
2019-04-04T18:42:06.387Z,10.01
2019-04-04T18:44:33.960Z,10.02
2019-04-04T18:47:01.458Z,10.02
2019-04-04T18:49:28.707Z,10.04
2019-04-04T18:51:55.923Z,10.03
2019-04-04T18:54:23.235Z,10.06
2019-04-04T18:56:50.456Z,10.09
2019-04-04T18:59:17.669Z,10.12
2019-04-04T19:01:45.023Z,10.13
2019-04-04T19:04:12.286Z,10.14
2019-04-04T19:06:39.586Z,10.15
2019-04-04T19:09:15.213Z,10.15
2019-04-04T19:11:39.961Z,10.17
2019-04-04T19:14:07.227Z,10.17
2019-04-04T19:16:34.494Z,10.13
2019-04-04T19:19:01.744Z,10.13
2019-04-04T19:21:28.982Z,10.16
2019-04-04T19:23:56.228Z,10.15
2019-04-04T19:26:24.522Z,10.13
2019-04-04T19:28:51.767Z,10.12
2019-04-04T19:31:19.182Z,10.13
2019-04-04T19:33:46.581Z,10.12
2019-04-04T19:36:13.923Z,10.11
2019-04-04T19:38:41.158Z,10.11
2019-04-04T19:41:08.434Z,10.09
2019-04-04T19:43:35.693Z,10.08
2019-04-04T19:46:02.901Z,10.03
2019-04-04T19:48:34.192Z,10.00
2019-04-04T19:51:01.531Z,9.96
2019-04-04T19:53:28.808Z,9.92
2019-04-04T19:55:56.155Z,9.92
2019-04-04T19:58:23.379Z,9.91
2019-04-04T20:00:50.708Z,9.87
2019-04-04T20:03:17.936Z,9.87
2019-04-04T20:05:45.173Z,9.82
2019-04-04T20:08:12.438Z,9.87
2019-04-04T20:10:42.510Z,9.86
2019-04-04T20:13:09.737Z,9.72
2019-04-04T20:15:37.026Z,9.72
2019-04-04T20:18:04.359Z,9.75
2019-04-04T20:20:31.651Z,9.76
2019-04-04T20:22:59.142Z,9.76
2019-04-04T20:25:26.368Z,9.77
2019-04-04T20:27:55.094Z,9.67
2019-04-04T20:30:35.931Z,9.67
2019-04-04T20:33:03.267Z,9.67
2019-04-04T20:35:30.849Z,9.58
2019-04-04T20:37:58.131Z,9.53
2019-04-04T20:40:25.372Z,9.53
2019-04-04T20:42:52.613Z,9.52
2019-04-04T20:45:19.909Z,9.54
2019-04-04T20:47:47.128Z,9.59
2019-04-04T20:50:14.456Z,9.59
2019-04-04T20:52:41.704Z,9.61
2019-04-04T20:55:08.930Z,9.56
2019-04-04T20:57:36.151Z,9.50
2019-04-04T21:00:04.237Z,9.44
2019-04-04T21:02:31.443Z,9.42
2019-04-04T21:04:58.643Z,9.46
2019-04-04T21:07:25.922Z,9.48
2019-04-04T21:09:53.163Z,9.54
2019-04-04T21:12:20.413Z,9.54
2019-04-04T21:14:47.720Z,9.58
2019-04-04T21:17:14.914Z,9.60
2019-04-04T21:19:42.160Z,9.62
2019-04-04T21:22:09.448Z,9.63
2019-04-04T21:24:36.733Z,9.65
2019-04-04T21:27:03.979Z,9.65
2019-04-04T21:29:31.219Z,9.66
2019-04-04T21:31:58.444Z,9.67
2019-04-04T21:34:25.678Z,9.64
2019-04-04T21:36:52.920Z,9.64
2019-04-04T21:39:20.200Z,9.63
2019-04-04T21:41:47.458Z,9.65
2019-04-04T21:44:14.747Z,9.58
2019-04-04T21:46:42.002Z,9.62
2019-04-04T21:49:09.214Z,9.62
2019-04-04T21:51:36.456Z,9.63
2019-04-04T21:54:03.866Z,9.62
2019-04-04T21:56:31.156Z,9.63
2019-04-04T21:58:58.383Z,9.60
2019-04-04T22:01:26.041Z,9.60
2019-04-04T22:03:53.292Z,9.60
2019-04-04T22:06:20.544Z,9.59
2019-04-04T22:08:47.777Z,9.58
2019-04-04T22:11:15.069Z,9.56
2019-04-04T22:13:42.321Z,9.56
2019-04-04T22:16:09.565Z,9.57
2019-04-04T22:18:36.859Z,9.57
2019-04-04T22:21:04.137Z,9.57
2019-04-04T22:23:31.396Z,9.55
2019-04-04T22:25:58.688Z,9.53
2019-04-04T22:28:25.935Z,9.54
2019-04-04T22:30:53.194Z,9.49
2019-04-04T22:33:20.473Z,9.45
2019-04-04T22:35:47.760Z,9.33
2019-04-04T22:38:15.004Z,9.28
2019-04-04T22:40:42.322Z,9.35
2019-04-04T22:43:09.562Z,9.36
2019-04-04T22:45:36.802Z,9.38
2019-04-04T22:48:04.372Z,9.41
2019-04-04T22:50:31.631Z,9.41
2019-04-04T22:52:58.908Z,9.38
2019-04-04T22:55:26.692Z,9.34
2019-04-04T22:57:54.099Z,9.36
2019-04-04T23:00:21.455Z,9.37
2019-04-04T23:02:48.855Z,9.41
2019-04-04T23:05:16.153Z,9.37
2019-04-04T23:07:43.444Z,9.37
2019-04-04T23:10:10.701Z,9.43
2019-04-04T23:12:38.002Z,9.42
2019-04-04T23:15:06.611Z,9.43
2019-04-04T23:17:33.879Z,9.45
2019-04-04T23:20:01.189Z,9.46
2019-04-04T23:22:28.460Z,9.47
2019-04-04T23:24:55.712Z,9.48
2019-04-04T23:27:23.033Z,9.48
2019-04-04T23:29:50.288Z,9.48
2019-04-04T23:32:17.558Z,9.47
2019-04-04T23:34:44.892Z,9.47
2019-04-04T23:37:12.156Z,9.44
2019-04-04T23:39:39.401Z,9.44
2019-04-04T23:42:06.682Z,9.49
2019-04-04T23:44:33.918Z,9.50
2019-04-04T23:47:01.165Z,9.50
2019-04-04T23:49:28.459Z,9.49
2019-04-04T23:51:55.734Z,9.48
2019-04-04T23:54:23.031Z,9.45
2019-04-04T23:56:50.344Z,9.25
2019-04-04T23:59:17.588Z,9.31
